• Join FlightAware (Why Join?)
  • Login
  • US Flag 
06:04AM EST


 

Airport Tracker/Info


-or-


 

Live Flight TrackerFlight Track Log ✈ LOF3416 ✈ 25-Apr-2013 ✈ KIAD - KDAY

Flight Track Log - Related Links

Times and Time Zones

All times are in EDT time to prevent confusion due to time zone crossing. See the LOF3416 flight status page for this flight to view local times or setup timezone preferences in your user account.

Time Position Orientation Groundspeed Altitude Reporting Facility
EDT Latitude Longitude Course Direction KTS MPH feet Rate Location/Type
10:23PM 38.9167 -77.4500 229° Southwest 167 192 1,600  Level Potomac TRACON
10:24PM 38.8833 -77.5000 229° Southwest 235 270 3,400 2,280 Climbing Potomac TRACON
10:25PM 38.8833 -77.5833 270° West 247 284 6,300 1,860 Climbing Potomac TRACON
10:26PM 38.8764 -77.6822 265° West 263 303 7,100 1,560 Climbing Washington Center
10:27PM 38.8750 -77.7675 269° West 263 303 9,500 1,920 Climbing Washington Center
10:28PM 38.8753 -77.8661 270° West 268 308 11,000 1,500 Climbing Washington Center
10:29PM 38.8858 -77.9706 277° West 288 331 12,500 1,680 Climbing Washington Center
10:30PM 38.9169 -78.0781 290° West 301 346 14,400 1,920 Climbing Washington Center
10:31PM 38.9503 -78.1808 293° West 311 358 16,400 1,740 Climbing Washington Center
10:32PM 38.9625 -78.2828 279° West 306 352 17,900 1,680 Climbing Washington Center
10:33PM 38.9664 -78.3897 273° West 295 339 19,800 1,740 Climbing Washington Center
10:34PM 38.9700 -78.4964 273° West 295 339 21,500 1,620 Climbing Washington Center
10:35PM 38.9736 -78.6033 273° West 295 339 23,100 1,260 Climbing Washington Center
10:36PM 38.9750 -78.7131 271° West 300 345 24,000 780 Climbing Washington Center
10:37PM 38.9803 -78.8308 273° West 321 369 24,700 720 Climbing Washington Center
10:38PM 38.9831 -78.9536 272° West 334 384 25,500 600 Climbing Washington Center
10:39PM 38.9858 -79.0794 272° West 344 396 26,000 240 Climbing Washington Center
10:40PM 38.9903 -79.2103 273° West 360 414 26,000 480 Level Washington Center
10:41PM 38.9925 -79.3414 271° West 368 423 27,000 900 Climbing Washington Center
10:42PM 38.9969 -79.4697 273° West 368 423 27,900 480 Climbing Washington Center
10:43PM 38.9986 -79.6089 271° West 368 423 28,000  Climbing Washington Center
10:44PM 39.0008 -79.7267 271° West 381 438 28,000  Level Washington Center
10:45PM 39.0022 -79.8628 271° West 387 445 28,000  Level Washington Center
10:46PM 39.0056 -79.9994 272° West 387 445 28,000  Level Washington Center
10:48PM 39.0058 -80.1886 270° West 383 441 28,000  Level Indianapolis Center
10:49PM 39.0081 -80.3242 271° West 382 440 28,000  Level Indianapolis Center
10:50PM 39.0111 -80.4594 272° West 380 437 28,000  Level Indianapolis Center
10:51PM 39.0258 -80.5900 278° West 372 428 28,000  Level Indianapolis Center
10:52PM 39.0442 -80.7194 280° West 369 425 28,000  Level Indianapolis Center
10:53PM 39.0617 -80.8492 280° West 369 425 28,000  Level Indianapolis Center
10:54PM 39.0803 -80.9792 280° West 370 426 28,000  Level Indianapolis Center
10:55PM 39.0986 -81.1075 280° West 368 423 28,000  Level Indianapolis Center
10:56PM 39.1206 -81.2661 280° West 375 432 28,000  Level Indianapolis Center
10:57PM 39.1389 -81.3972 280° West 376 433 28,000  Level Indianapolis Center
10:58PM 39.1561 -81.5294 280° West 377 434 28,000  Level Indianapolis Center
10:59PM 39.1736 -81.6625 280° West 378 435 28,000  Level Indianapolis Center
11:00PM 39.1906 -81.7958 279° West 379 436 28,000 -300 Level Indianapolis Center
11:01PM 39.2086 -81.9294 280° West 381 438 27,400 -1,320 Descending Indianapolis Center
11:02PM 39.2256 -82.0631 279° West 380 437 25,400 -1,980 Descending Indianapolis Center
11:03PM 39.2428 -82.1972 279° West 379 436 23,400 -2,040 Descending Indianapolis Center
11:04PM 39.2592 -82.3272 279° West 371 427 21,300 -2,040 Descending Indianapolis Center
11:05PM 39.2753 -82.4569 279° West 367 422 19,300 -2,040 Descending Indianapolis Center
11:06PM 39.2942 -82.6064 279° West 359 413 17,200 -2,040 Descending Indianapolis Center
11:07PM 39.3086 -82.7286 279° West 346 398 15,200 -1,980 Descending Indianapolis Center
11:08PM 39.3236 -82.8517 279° West 343 395 13,200 -1,680 Descending Indianapolis Center
11:09PM 39.3386 -82.9711 279° West 336 387 11,800 -1,140 Descending Indianapolis Center
11:10PM 39.3522 -83.0914 278° West 334 384 10,900 -420 Descending Indianapolis Center
11:11PM 39.3661 -83.2086 279° West 329 379 11,000  Climbing Indianapolis Center
11:12PM 39.3806 -83.3244 279° West 324 373 11,000  Level Indianapolis Center
11:13PM 39.3942 -83.4414 279° West 324 373 11,000 -120 Level Indianapolis Center
11:14PM 39.4072 -83.5594 278° West 326 375 10,800 -540 Descending Indianapolis Center
11:15PM 39.4186 -83.6458 280° West 318 366 10,100 -840 Descending Indianapolis Center
11:15PM 39.4289 -83.6689 300° West 321 369 10,000 -120 Descending Indianapolis Center
11:16PM 39.4775 -83.7261 318° Northwest 312 359 10,000  Level Indianapolis Center
11:16PM 39.4953 -83.7406 328° Northwest 313 360 10,000  Level Indianapolis Center
11:17PM 39.5717 -83.8042 327° Northwest 319 367 10,000 -120 Level Indianapolis Center
11:18PM 39.6450 -83.8664 327° Northwest 269 310 9,800 -1,080 Descending Indianapolis Center
11:19PM 39.7061 -83.9175 327° Northwest 253 291 7,900 -2,040 Descending Indianapolis Center
11:20PM 39.7669 -83.9689 327° Northwest 258 297 5,700 -1,860 Descending Indianapolis Center
11:21PM 39.8228 -84.0142 328° Northwest 253 291 4,000 -1,560 Descending Indianapolis Center
11:22PM 39.8753 -84.0594 327° Northwest 239 275 2,400 -960 Descending Indianapolis Center
11:23PM 39.9069 -84.0953 319° Northwest 175 201 2,100 -300 Descending Indianapolis Center